Time;durP1;ratioP1;P1;durP2;ratioP2;P2;SDS_P1;SDS_P2;PMS_P1;PMS_P2;Temp;Humidity;BMP_temperature;BMP_pressure;BME280_temperature;BME280_humidity;BME280_pressure;Samples;Min_cycle;Max_cycle;Signal;HPM_P1;HPM_P2
2021/04/11 00:00:23;;;;;;;11.73;8.88;;;;;;;8.68;61.26;100734.22;4884796;28;124228;-70
2021/04/11 00:02:50;;;;;;;10.13;7.90;;;;;;;8.65;61.10;100729.03;4886987;28;123512;-69
2021/04/11 00:05:19;;;;;;;10.45;7.80;;;;;;;8.57;61.01;100728.50;4886823;28;118240;-69
2021/04/11 00:07:46;;;;;;;8.95;7.13;;;;;;;8.53;61.16;100729.50;4887195;28;119755;-69
2021/04/11 00:10:16;;;;;;;10.73;7.38;;;;;;;8.47;61.22;100732.38;4887986;28;124758;-69
2021/04/11 00:12:42;;;;;;;11.73;7.25;;;;;;;8.41;61.08;100719.41;4887493;28;124824;-69
2021/04/11 00:15:10;;;;;;;8.85;7.03;;;;;;;8.36;61.26;100728.34;4889068;28;119545;-69
2021/04/11 00:17:37;;;;;;;8.25;6.55;;;;;;;8.31;61.33;100730.28;4888656;28;119216;-69
2021/04/11 00:20:07;;;;;;;10.70;6.78;;;;;;;8.28;61.27;100740.97;4886308;28;124287;-69
2021/04/11 00:22:34;;;;;;;10.27;7.00;;;;;;;8.25;61.38;100738.44;4886462;28;125063;-69
2021/04/11 00:25:03;;;;;;;9.45;6.70;;;;;;;8.24;61.32;100728.81;4888673;28;120164;-69
2021/04/11 00:27:29;;;;;;;9.85;6.90;;;;;;;8.22;61.42;100741.19;4891332;28;120370;-70
2021/04/11 00:29:56;;;;;;;7.22;6.43;;;;;;;8.19;61.45;100730.75;4889003;28;122806;-69
2021/04/11 00:32:22;;;;;;;8.88;7.07;;;;;;;8.17;61.45;100738.75;4891098;28;124023;-69
2021/04/11 00:34:49;;;;;;;7.47;6.10;;;;;;;8.16;61.34;100736.16;4891530;28;119842;-69
2021/04/11 00:37:15;;;;;;;10.60;6.78;;;;;;;8.15;61.78;100731.78;4891504;28;119018;-69
2021/04/11 00:39:42;;;;;;;8.60;6.55;;;;;;;8.15;61.84;100739.69;4889356;28;124807;-69
2021/04/11 00:42:24;;;;;;;8.70;6.68;;;;;;;8.14;61.42;100732.72;4891619;28;124004;-69
2021/04/11 00:44:52;;;;;;;8.32;6.43;;;;;;;8.13;61.45;100725.69;4871042;28;118321;-69
2021/04/11 00:47:19;;;;;;;8.50;6.22;;;;;;;8.09;61.61;100724.09;4893758;28;119434;-69
2021/04/11 00:49:47;;;;;;;7.97;6.40;;;;;;;8.06;61.45;100732.09;4883620;28;124453;-69
2021/04/11 00:52:15;;;;;;;7.65;5.80;;;;;;;8.02;61.41;100728.72;4890509;28;124661;-69
2021/04/11 00:54:42;;;;;;;6.70;5.65;;;;;;;7.99;61.50;100727.06;4870901;28;118430;-69
2021/04/11 00:57:12;;;;;;;8.13;5.50;;;;;;;7.95;61.52;100717.56;4889006;28;118961;-69
2021/04/11 00:59:40;;;;;;;8.13;5.70;;;;;;;7.90;61.30;100718.63;4872809;28;122688;-69
2021/04/11 01:02:06;;;;;;;6.50;5.32;;;;;;;7.88;61.74;100725.75;4889627;28;124649;-69
2021/04/11 01:04:33;;;;;;;7.35;5.60;;;;;;;7.86;61.62;100728.44;4873900;28;119638;-69
2021/04/11 01:07:08;;;;;;;7.45;5.82;;;;;;;7.83;61.46;100723.25;4890765;28;118511;-69
2021/04/11 01:09:46;;;;;;;6.47;5.60;;;;;;;7.80;61.51;100724.22;4885178;28;122439;-69
2021/04/11 01:12:18;;;;;;;6.97;5.65;;;;;;;7.75;61.70;100720.03;4890776;28;124401;-69
2021/04/11 01:14:45;;;;;;;9.13;5.97;;;;;;;7.75;61.65;100725.31;4886821;28;119859;-69
2021/04/11 01:17:20;;;;;;;9.13;6.32;;;;;;;7.71;61.69;100715.78;4889181;28;119522;-69
2021/04/11 01:19:51;;;;;;;8.80;6.87;;;;;;;7.68;61.56;100707.97;4870523;28;123661;-69
2021/04/11 01:22:50;;;;;;;8.60;6.93;;;;;;;7.64;61.35;100711.66;4889068;28;124015;-69
2021/04/11 01:25:20;;;;;;;8.82;7.07;;;;;;;7.61;61.50;100717.91;4888117;28;119024;-69
2021/04/11 01:27:51;;;;;;;8.18;6.82;;;;;;;7.59;61.65;100720.56;4891537;28;118509;-69
2021/04/11 01:30:20;;;;;;;8.13;6.55;;;;;;;7.56;61.67;100725.94;4872302;28;124321;-69
2021/04/11 01:32:49;;;;;;;9.93;6.63;;;;;;;7.51;61.51;100725.22;4889482;28;124150;-69
2021/04/11 01:35:21;;;;;;;7.40;6.40;;;;;;;7.49;61.74;100724.44;4886488;28;117563;-69
2021/04/11 01:37:50;;;;;;;8.50;6.72;;;;;;;7.46;61.50;100719.28;4889978;28;119081;-70
2021/04/11 01:40:24;;;;;;;9.55;7.15;;;;;;;7.43;61.79;100711.47;4871827;28;124153;-69
2021/04/11 01:42:51;;;;;;;9.05;6.80;;;;;;;7.39;61.94;100707.22;4888082;28;124302;-69
2021/04/11 01:45:20;;;;;;;8.75;7.05;;;;;;;7.38;61.58;100710.75;4887198;28;119890;-69
2021/04/11 01:47:46;;;;;;;10.07;7.15;;;;;;;7.35;61.73;100716.16;4890065;28;119414;-69
2021/04/11 01:50:14;;;;;;;9.35;7.10;;;;;;;7.31;62.05;100719.78;4880971;28;122996;-69
2021/04/11 01:52:42;;;;;;;9.13;7.45;;;;;;;7.28;61.89;100718.13;4887586;28;124060;-69
2021/04/11 01:55:11;;;;;;;9.82;7.28;;;;;;;7.26;62.06;100721.72;4890128;28;119895;-69
2021/04/11 01:57:40;;;;;;;10.40;7.05;;;;;;;7.25;61.92;100714.72;4888363;28;119156;-69
2021/04/11 02:00:19;;;;;;;10.40;7.28;;;;;;;7.22;62.17;100727.06;4885999;28;123391;-69
2021/04/11 02:03:00;;;;;;;10.13;7.63;;;;;;;7.20;62.13;100728.06;4887835;28;123041;-69
2021/04/11 02:05:30;;;;;;;9.60;7.05;;;;;;;7.20;62.05;100726.28;4887461;28;120258;-69
2021/04/11 02:07:58;;;;;;;11.75;7.95;;;;;;;7.18;62.01;100736.00;4889247;28;120849;-69
2021/04/11 02:10:35;;;;;;;11.95;7.75;;;;;;;7.16;62.15;100737.81;4887519;28;124202;-69
2021/04/11 02:13:36;;;;;;;8.55;7.03;;;;;;;7.18;62.15;100738.63;4871646;28;124192;-69
2021/04/11 02:16:20;;;;;;;9.68;6.90;;;;;;;7.16;62.13;100743.09;4887501;28;119280;-69
2021/04/11 02:18:47;;;;;;;8.55;6.35;;;;;;;7.14;61.82;100739.66;4869868;28;118289;-69
2021/04/11 02:21:20;;;;;;;10.38;6.90;;;;;;;7.12;62.25;100736.22;4870606;28;123542;-69
2021/04/11 02:23:48;;;;;;;9.75;6.70;;;;;;;7.10;62.27;100732.78;4887271;28;123158;-69
2021/04/11 02:26:21;;;;;;;10.88;7.00;;;;;;;7.09;61.83;100749.47;4886671;28;118311;-69
2021/04/11 02:29:00;;;;;;;8.43;6.60;;;;;;;7.10;62.38;100745.03;4887939;28;119063;-69
2021/04/11 02:31:27;;;;;;;8.32;6.32;;;;;;;7.08;61.90;100750.34;4888730;28;124655;-69
2021/04/11 02:34:09;;;;;;;7.53;6.07;;;;;;;7.07;62.17;100759.19;4888110;28;124241;-69
2021/04/11 02:36:40;;;;;;;;;;;;;;;7.06;61.78;100762.72;4888070;28;119477;-69
2021/04/11 02:39:12;;;;;;;8.10;5.78;;;;;;;7.06;61.88;100760.09;4884991;28;118560;-69
2021/04/11 02:41:40;;;;;;;9.65;5.97;;;;;;;7.04;61.86;100759.28;4872087;28;123457;-69
2021/04/11 02:44:08;;;;;;;7.13;5.60;;;;;;;7.04;62.01;100756.63;4889643;28;124943;-69
2021/04/11 02:46:40;;;;;;;7.15;5.68;;;;;;;7.03;61.92;100765.47;4889257;28;119678;-69
2021/04/11 02:49:11;;;;;;;8.35;5.80;;;;;;;7.04;62.17;100754.00;4884774;28;118692;-69
2021/04/11 02:51:39;;;;;;;9.38;6.00;;;;;;;7.04;62.05;100764.53;4888102;28;123969;-68
2021/04/11 02:54:15;;;;;;;8.38;5.53;;;;;;;7.05;62.25;100766.28;4887610;28;122454;-69
2021/04/11 02:56:45;;;;;;;8.02;5.00;;;;;;;7.06;62.12;100767.97;4888063;28;120720;-69
2021/04/11 02:59:18;;;;;;;7.30;5.40;;;;;;;7.07;62.50;100764.47;4887059;28;120239;-69
2021/04/11 03:01:50;;;;;;;6.95;5.53;;;;;;;7.09;62.30;100767.91;4887663;28;124298;-69
2021/04/11 03:04:23;;;;;;;7.05;5.75;;;;;;;7.09;62.19;100778.44;4887931;28;123434;-69
2021/04/11 03:06:59;;;;;;;7.88;5.82;;;;;;;7.12;62.26;100777.47;4869810;28;118380;-69
2021/04/11 03:09:39;;;;;;;6.93;5.65;;;;;;;7.12;62.05;100794.16;4887348;28;118226;-69
2021/04/11 03:12:11;;;;;;;7.22;5.68;;;;;;;7.13;61.88;100795.00;4888838;28;124150;-69
2021/04/11 03:14:42;;;;;;;8.10;6.70;;;;;;;7.12;62.10;100783.63;4884347;28;122982;-69
2021/04/11 03:17:18;;;;;;;9.43;6.68;;;;;;;7.12;62.03;100783.63;4888067;28;118482;-69
2021/04/11 03:20:17;;;;;;;8.75;6.75;;;;;;;7.12;62.28;100782.72;4888577;28;119252;-69
2021/04/11 03:22:55;;;;;;;7.55;6.25;;;;;;;7.14;62.25;100787.06;4870792;28;123206;-69
2021/04/11 03:25:24;;;;;;;9.15;6.45;;;;;;;7.15;62.29;100793.19;4871549;28;123262;-69
2021/04/11 03:27:55;;;;;;;8.82;6.53;;;;;;;7.16;62.38;100801.03;4855841;28;118571;-69
2021/04/11 03:30:31;;;;;;;7.90;6.20;;;;;;;7.18;62.37;100806.25;4888465;28;120786;-69
2021/04/11 03:33:02;;;;;;;9.32;6.22;;;;;;;7.19;62.05;100813.25;4887399;28;123827;-69
2021/04/11 03:35:34;;;;;;;8.73;6.22;;;;;;;7.19;62.45;100811.47;4884727;28;123482;-69
2021/04/11 03:38:03;;;;;;;8.43;6.47;;;;;;;7.21;62.18;100809.66;4886985;28;118550;-69
2021/04/11 03:40:34;;;;;;;7.07;5.57;;;;;;;7.24;62.26;100813.09;4887457;28;118690;-69
2021/04/11 03:43:13;;;;;;;10.02;5.63;;;;;;;7.24;62.29;100802.56;4886506;28;124343;-69
2021/04/11 03:45:41;;;;;;;6.70;5.47;;;;;;;7.24;62.38;100813.97;4884616;28;123893;-69
2021/04/11 03:48:17;;;;;;;7.03;5.57;;;;;;;7.22;62.39;100806.09;4881466;28;119994;-69
2021/04/11 03:50:54;;;;;;;7.00;5.00;;;;;;;7.24;62.09;100818.38;4862575;28;119469;-68
2021/04/11 03:53:26;;;;;;;6.00;4.57;;;;;;;7.25;62.08;100809.53;4887766;28;124710;-69
2021/04/11 03:56:01;;;;;;;5.35;4.55;;;;;;;7.26;62.38;100816.56;4885777;28;123753;-69
2021/04/11 03:58:39;;;;;;;5.30;3.95;;;;;;;7.26;62.29;100808.66;4867261;28;119796;-69
2021/04/11 04:01:19;;;;;;;6.07;4.18;;;;;;;7.27;62.17;100813.00;4873862;28;117516;-69
2021/04/11 04:03:51;;;;;;;4.70;3.42;;;;;;;7.26;62.39;100806.00;4874001;28;125874;-69
2021/04/11 04:06:31;;;;;;;4.82;3.45;;;;;;;7.25;62.05;100815.66;4890236;28;123553;-69
2021/04/11 04:08:59;;;;;;;6.38;3.50;;;;;;;7.25;62.22;100820.09;4889593;28;119506;-69
2021/04/11 04:11:56;;;;;;;4.63;3.58;;;;;;;7.25;62.41;100825.34;4887978;28;119422;-69
2021/04/11 04:14:47;;;;;;;4.50;3.40;;;;;;;7.26;62.06;100827.09;4890281;28;124894;-69
2021/04/11 04:17:28;;;;;;;4.65;3.10;;;;;;;7.27;62.09;100828.78;4889404;28;123540;-69
2021/04/11 04:20:12;;;;;;;4.70;3.08;;;;;;;7.29;62.11;100834.88;4889399;28;118356;-69
2021/04/11 04:23:09;;;;;;;4.22;2.75;;;;;;;7.32;62.08;100837.44;4889765;28;119170;-69
2021/04/11 04:25:50;;;;;;;3.60;3.05;;;;;;;7.33;62.42;100833.91;4888712;28;124231;-69
2021/04/11 04:28:43;;;;;;;3.80;3.40;;;;;;;7.35;62.15;100842.59;4887323;28;123915;-69
2021/04/11 04:31:47;;;;;;;3.22;2.58;;;;;;;7.35;61.92;100845.25;4890700;28;119519;-69
2021/04/11 04:34:34;;;;;;;3.25;2.67;;;;;;;7.34;62.00;100846.13;4890348;28;118227;-69
2021/04/11 04:37:32;;;;;;;3.92;2.65;;;;;;;7.34;62.11;100846.13;4889841;28;123168;-69
2021/04/11 04:40:39;;;;;;;3.65;2.70;;;;;;;7.36;62.19;100854.84;4889468;28;123744;-69
2021/04/11 04:43:36;;;;;;;2.80;2.45;;;;;;;7.35;62.25;100855.78;4863497;28;119538;-69
2021/04/11 04:46:05;;;;;;;3.13;2.80;;;;;;;7.36;61.98;100865.41;4887093;28;119891;-69
2021/04/11 04:48:38;;;;;;;4.43;3.13;;;;;;;7.37;61.94;100856.59;4889216;28;124515;-69
2021/04/11 04:51:18;;;;;;;3.50;3.00;;;;;;;7.38;62.24;100853.03;4874770;28;123313;-69
2021/04/11 04:54:01;;;;;;;4.18;3.03;;;;;;;7.39;61.95;100865.31;4872524;28;119043;-69
2021/04/11 04:56:47;;;;;;;3.80;2.90;;;;;;;7.40;61.88;100867.00;4887081;28;118575;-69
2021/04/11 04:59:24;;;;;;;3.85;2.80;;;;;;;7.40;61.98;100861.75;4891260;28;124265;-69
2021/04/11 05:02:05;;;;;;;3.60;2.90;;;;;;;7.42;61.91;100875.72;4870702;28;123965;-69
2021/04/11 05:04:48;;;;;;;3.25;2.72;;;;;;;7.41;61.75;100876.66;4872781;28;118404;-69
2021/04/11 05:07:23;;;;;;;4.10;2.88;;;;;;;7.41;61.93;100884.56;4888604;28;118514;-69
2021/04/11 05:10:00;;;;;;;4.13;2.92;;;;;;;7.40;62.04;100888.09;4885442;28;123980;-69
2021/04/11 05:13:02;;;;;;;3.13;2.80;;;;;;;7.39;62.14;100881.13;4886777;28;123373;-69
2021/04/11 05:15:44;;;;;;;3.85;3.08;;;;;;;7.39;62.06;100891.66;4886592;28;118441;-69
2021/04/11 05:18:22;;;;;;;;;;;;;;;7.39;61.76;100896.94;4871598;28;118820;-69
2021/04/11 05:21:07;;;;;;;3.95;2.90;;;;;;;7.41;61.92;100906.50;4873459;28;123878;-69
2021/04/11 05:23:44;;;;;;;3.65;2.70;;;;;;;7.41;62.25;100910.91;4887479;28;123375;-69
2021/04/11 05:26:25;;;;;;;4.88;3.10;;;;;;;7.41;61.96;100911.75;4889127;28;119495;-69
2021/04/11 05:29:03;;;;;;;2.72;2.50;;;;;;;7.42;62.17;100912.63;4889340;28;118762;-69
2021/04/11 05:31:37;;;;;;;3.58;2.90;;;;;;;7.43;61.99;100914.34;4888042;28;123987;-69
2021/04/11 05:34:07;;;;;;;3.47;2.80;;;;;;;7.46;62.20;100914.28;4872744;28;123018;-69
2021/04/11 05:37:11;;;;;;;4.28;2.50;;;;;;;7.46;61.97;100914.28;4856949;28;119228;-69
2021/04/11 05:40:16;;;;;;;4.20;2.70;;;;;;;7.47;62.11;100910.72;4888662;28;119156;-69
2021/04/11 05:42:55;;;;;;;4.45;2.78;;;;;;;7.47;61.98;100921.25;4888394;28;123311;-69
2021/04/11 05:45:31;;;;;;;3.60;3.00;;;;;;;7.48;62.27;100938.81;4888412;28;123272;-69
2021/04/11 05:48:18;;;;;;;4.18;2.85;;;;;;;7.50;62.08;100946.66;4888106;28;118528;-69
2021/04/11 05:50:48;;;;;;;5.30;4.68;;;;;;;7.50;62.51;100947.53;4883583;28;118179;-69
2021/04/11 05:53:21;;;;;;;5.53;3.28;;;;;;;7.52;62.29;100956.25;4887018;28;123423;-69
2021/04/11 05:56:17;;;;;;;3.97;2.95;;;;;;;7.53;62.37;100952.69;4887446;28;123899;-69
2021/04/11 05:58:53;;;;;;;4.88;2.88;;;;;;;7.54;62.43;100954.41;4889678;28;119878;-69
2021/04/11 06:01:56;;;;;;;5.07;3.15;;;;;;;7.56;62.34;100957.88;4885794;28;118150;-72
2021/04/11 06:04:29;;;;;;;3.85;3.17;;;;;;;7.57;62.32;100964.88;4828844;29;123810;-72
2021/04/11 06:07:14;;;;;;;6.88;2.92;;;;;;;7.59;62.38;100952.50;4879663;28;124199;-72
2021/04/11 06:09:48;;;;;;;3.22;2.85;;;;;;;7.60;62.57;100962.13;4888142;28;119182;-72
2021/04/11 06:12:19;;;;;;;5.03;3.30;;;;;;;7.62;62.40;100961.22;4890658;28;119040;-71
2021/04/11 06:14:54;;;;;;;6.35;3.22;;;;;;;7.64;62.17;100969.97;4885552;28;123876;-72
2021/04/11 06:17:21;;;;;;;3.65;2.90;;;;;;;7.67;62.31;100977.78;4880194;28;124334;-72
2021/04/11 06:19:49;;;;;;;4.68;3.03;;;;;;;7.68;62.46;100979.50;4887257;28;118851;-72
2021/04/11 06:22:24;;;;;;;3.80;3.30;;;;;;;7.70;62.34;100985.56;4888238;28;119577;-72
2021/04/11 06:25:03;;;;;;;4.13;2.88;;;;;;;7.70;62.33;100985.56;4886993;28;124463;-72
2021/04/11 06:27:36;;;;;;;3.97;2.85;;;;;;;7.71;62.11;100992.59;4886651;28;124703;-69
2021/04/11 06:30:18;;;;;;;3.58;2.78;;;;;;;7.71;62.49;100993.44;4887310;28;122004;-69
2021/04/11 06:32:56;;;;;;;3.30;2.45;;;;;;;7.72;62.25;100994.28;4887122;28;120835;-70
2021/04/11 06:35:38;;;;;;;3.58;2.42;;;;;;;7.74;62.41;100997.75;4887103;28;124303;-72
2021/04/11 06:38:09;;;;;;;3.35;2.65;;;;;;;7.76;62.19;101003.84;4889724;28;123434;-72
2021/04/11 06:40:51;;;;;;;3.33;2.80;;;;;;;7.78;62.18;101004.69;4872284;28;119435;-69
2021/04/11 06:43:54;;;;;;;3.42;2.35;;;;;;;7.79;62.33;101003.75;4868742;28;118203;-70
2021/04/11 06:46:37;;;;;;;3.97;2.13;;;;;;;7.81;62.10;100994.00;4872644;28;124508;-72
2021/04/11 06:49:43;;;;;;;4.38;2.60;;;;;;;7.80;61.96;101008.13;4888137;28;124004;-72
2021/04/11 06:52:19;;;;;;;3.50;2.05;;;;;;;7.82;62.08;101018.59;4860725;28;119552;-72
2021/04/11 06:55:02;;;;;;;3.42;2.47;;;;;;;7.82;62.03;101024.75;4888637;28;119406;-72
2021/04/11 06:57:39;;;;;;;4.95;2.10;;;;;;;7.83;61.78;101031.75;4872061;28;123194;-70
2021/04/11 07:00:12;;;;;;;3.03;1.85;;;;;;;7.85;61.79;101027.28;4872682;28;122901;-70
2021/04/11 07:03:11;;;;;;;4.15;2.28;;;;;;;7.86;61.60;101028.16;4886208;28;119318;-70
2021/04/11 07:05:59;;;;;;;3.45;1.90;;;;;;;7.89;61.67;101031.56;4887845;28;119303;-70
2021/04/11 07:08:51;;;;;;;2.58;2.05;;;;;;;7.94;61.57;101037.53;4878402;28;123061;-70
2021/04/11 07:11:56;;;;;;;4.32;1.90;;;;;;;7.95;61.45;101049.84;4889919;28;124110;-70
2021/04/11 07:14:40;;;;;;;2.60;1.67;;;;;;;7.97;61.43;101050.66;4888079;28;120034;-70
2021/04/11 07:17:22;;;;;;;2.13;1.73;;;;;;;7.99;61.46;101051.47;4893344;28;120030;-72
2021/04/11 07:20:12;;;;;;;2.25;1.60;;;;;;;8.02;61.39;101054.91;4892976;28;124305;-70
2021/04/11 07:23:17;;;;;;;1.85;1.60;;;;;;;8.04;61.28;101058.38;4889587;28;124349;-70
2021/04/11 07:26:12;;;;;;;3.45;1.80;;;;;;;8.06;61.30;101060.06;4882347;28;120544;-70
2021/04/11 07:28:53;;;;;;;3.08;1.50;;;;;;;8.10;61.30;101059.06;4889554;28;120083;-70
2021/04/11 07:31:45;;;;;;;1.90;1.50;;;;;;;8.16;61.23;101058.00;4887702;28;123257;-70
2021/04/11 07:34:48;;;;;;;1.70;1.40;;;;;;;8.20;60.88;101064.91;4882361;28;124183;-69
2021/04/11 07:37:23;;;;;;;1.63;1.30;;;;;;;8.24;60.63;101061.25;4878761;28;119452;-69
2021/04/11 07:40:08;;;;;;;;;;;;;;;8.26;60.71;101072.59;4889921;28;119129;-69
2021/04/11 07:43:11;;;;;;;2.55;1.38;;;;;;;8.29;60.49;101074.31;4883782;28;124363;-69
2021/04/11 07:45:50;;;;;;;2.80;1.27;;;;;;;8.30;60.74;101076.88;4887907;28;124607;-70
2021/04/11 07:48:38;;;;;;;3.22;1.52;;;;;;;8.32;60.31;101088.25;4888320;28;119205;-70
2021/04/11 07:51:42;;;;;;;2.03;1.40;;;;;;;8.32;60.00;101085.59;4871654;28;119271;-70
2021/04/11 07:54:45;;;;;;;2.40;1.63;;;;;;;8.34;60.39;101094.38;4883799;28;127960;-70
2021/04/11 07:57:30;;;;;;;3.60;1.73;;;;;;;8.35;60.06;101101.34;4885080;28;123721;-70
2021/04/11 08:00:41;;;;;;;3.13;1.67;;;;;;;8.35;60.30;101105.78;4888986;28;119677;-70
2021/04/11 08:03:39;;;;;;;3.67;1.88;;;;;;;8.34;60.00;101099.63;4821945;28;117040;-69
2021/04/11 08:06:26;;;;;;;4.22;1.77;;;;;;;8.34;60.05;101104.91;4886553;28;124727;-69
2021/04/11 08:09:04;;;;;;;5.00;2.20;;;;;;;8.34;60.22;101104.91;4886597;28;124419;-70
2021/04/11 08:12:05;;;;;;;5.90;1.95;;;;;;;8.34;60.04;101112.84;4881822;28;120191;-69
2021/04/11 08:15:09;;;;;;;2.67;1.88;;;;;;;8.35;60.09;101117.19;4889017;28;118786;-72
2021/04/11 08:17:51;;;;;;;4.20;2.20;;;;;;;8.35;59.88;101114.53;4870759;28;123048;-69
2021/04/11 08:20:40;;;;;;;4.30;2.28;;;;;;;8.36;59.94;101134.75;4888588;28;124362;-69
2021/04/11 08:23:22;;;;;;;2.67;2.10;;;;;;;8.38;60.07;101137.31;4870183;28;120075;-72
2021/04/11 08:26:16;;;;;;;3.67;1.83;;;;;;;8.37;59.69;101131.19;4886624;28;119665;-72
2021/04/11 08:29:16;;;;;;;2.85;1.85;;;;;;;8.35;59.56;101138.28;4877873;28;123971;-71
2021/04/11 08:32:11;;;;;;;4.47;1.90;;;;;;;8.33;59.66;101140.13;4871580;28;123915;-71
2021/04/11 08:34:57;;;;;;;3.75;2.03;;;;;;;8.36;59.56;101140.03;4887778;28;119525;-71
2021/04/11 08:37:40;;;;;;;3.97;2.00;;;;;;;8.38;59.73;101146.13;4869999;28;119166;-71
2021/04/11 08:40:10;;;;;;;2.70;1.90;;;;;;;8.43;59.57;101161.00;4870799;28;122949;-71
2021/04/11 08:42:49;;;;;;;4.00;1.83;;;;;;;8.45;59.63;101169.72;4888397;28;124455;-72
2021/04/11 08:45:23;;;;;;;6.53;2.08;;;;;;;8.48;59.27;101169.63;4871903;28;118488;-72
2021/04/11 08:48:14;;;;;;;2.20;1.85;;;;;;;8.50;59.52;101178.38;4889446;28;119190;-71
2021/04/11 08:50:56;;;;;;;4.30;1.80;;;;;;;8.55;59.63;101176.44;4890450;28;124259;-72
2021/04/11 08:53:34;;;;;;;4.68;2.00;;;;;;;8.58;59.29;101168.41;4884927;28;123505;-71
2021/04/11 08:56:13;;;;;;;3.30;1.90;;;;;;;8.63;59.32;101163.00;4886404;28;117875;-72
2021/04/11 08:58:48;;;;;;;2.88;1.92;;;;;;;8.67;59.20;101170.78;4890181;28;118668;-72
2021/04/11 09:01:40;;;;;;;2.67;1.87;;;;;;;8.70;59.21;101181.25;4887855;28;123972;-72
2021/04/11 09:04:27;;;;;;;2.88;1.70;;;;;;;8.74;58.80;101177.59;4890246;28;124365;-71
2021/04/11 09:07:07;;;;;;;4.50;1.70;;;;;;;8.80;58.58;101186.22;4890517;28;119332;-71
2021/04/11 09:09:55;;;;;;;2.63;1.60;;;;;;;8.84;58.54;101183.44;4873496;28;118260;-71
2021/04/11 09:12:40;;;;;;;3.33;1.88;;;;;;;8.88;58.56;101189.50;4889488;28;123518;-72
2021/04/11 09:15:28;;;;;;;4.40;1.80;;;;;;;8.90;58.55;101171.81;4889825;28;124587;-72
2021/04/11 09:18:07;;;;;;;3.28;1.90;;;;;;;8.94;58.51;101191.91;4886025;28;119294;-72
2021/04/11 09:20:52;;;;;;;2.55;1.40;;;;;;;8.97;58.54;101178.63;4883709;28;120031;-71
2021/04/11 09:23:32;;;;;;;4.63;1.87;;;;;;;9.03;58.35;101191.63;4886283;28;124346;-71
2021/04/11 09:26:09;;;;;;;3.22;1.90;;;;;;;9.05;57.97;101192.44;4886262;28;123961;-71
2021/04/11 09:28:47;;;;;;;5.03;2.00;;;;;;;9.09;58.06;101194.06;4890622;28;119548;-71
2021/04/11 09:31:39;;;;;;;5.72;1.77;;;;;;;9.11;58.26;101208.06;4873927;28;118285;-71
2021/04/11 09:34:25;;;;;;;2.75;1.60;;;;;;;9.16;58.21;101205.28;4855412;28;122764;-71
2021/04/11 09:37:26;;;;;;;4.25;1.90;;;;;;;9.19;57.87;101209.59;4890425;28;122707;-71
2021/04/11 09:40:03;;;;;;;2.85;1.77;;;;;;;9.25;58.21;101217.31;4888882;28;120679;-71
2021/04/11 09:42:51;;;;;;;2.72;1.65;;;;;;;9.29;57.78;101216.31;4887224;28;119198;-71
2021/04/11 09:45:27;;;;;;;3.03;1.50;;;;;;;9.34;57.68;101217.00;4872878;28;123282;-71
2021/04/11 09:48:23;;;;;;;3.08;1.70;;;;;;;9.36;57.72;101209.88;4891185;28;124529;-71
2021/04/11 09:51:04;;;;;;;3.58;1.58;;;;;;;9.40;57.40;101214.19;4889417;28;119801;-71
2021/04/11 09:53:35;;;;;;;;;;;;;;;9.42;57.91;101228.22;4885876;28;117914;-71
2021/04/11 09:56:26;;;;;;;3.25;1.60;;;;;;;9.45;57.51;101228.09;4890437;28;124185;-71
2021/04/11 09:59:07;;;;;;;3.00;1.60;;;;;;;9.47;57.65;101226.25;4883838;28;123360;-70
2021/04/11 10:02:28;;;;;;;3.80;1.40;;;;;;;9.46;57.73;101240.41;4890635;28;119780;-70
2021/04/11 10:05:03;;;;;;;2.00;1.40;;;;;;;9.45;57.40;101249.22;4783462;29;119116;-70
2021/04/11 10:07:54;;;;;;;2.15;1.40;;;;;;;9.43;57.29;101245.78;4793211;29;123823;-70
2021/04/11 10:10:25;;;;;;;3.72;1.60;;;;;;;9.41;57.45;101242.31;4850541;28;124075;-70
2021/04/11 10:12:55;;;;;;;4.25;1.80;;;;;;;9.42;57.14;101249.34;4884917;28;120062;-71
2021/04/11 10:15:34;;;;;;;4.20;2.00;;;;;;;9.41;57.05;101247.63;4886331;28;120194;-71
2021/04/11 10:18:20;;;;;;;4.88;1.98;;;;;;;9.38;57.50;101247.75;4885942;28;123025;-70
2021/04/11 10:21:05;;;;;;;3.33;1.60;;;;;;;9.35;57.52;101258.41;4887528;28;124380;-71
2021/04/11 10:23:44;;;;;;;3.72;1.77;;;;;;;9.34;57.91;101267.22;4885155;28;118966;-70
2021/04/11 10:26:23;;;;;;;2.25;1.80;;;;;;;9.36;58.12;101270.69;4886348;28;118858;-70
2021/04/11 10:28:55;;;;;;;2.80;1.52;;;;;;;9.40;57.99;101272.34;4888443;28;124670;-70
2021/04/11 10:31:56;;;;;;;3.08;1.50;;;;;;;9.46;58.34;101281.84;4889792;28;124645;-71
2021/04/11 10:34:37;;;;;;;3.70;1.55;;;;;;;9.53;58.14;101294.81;4884614;28;119225;-69
2021/04/11 10:37:16;;;;;;;2.28;1.30;;;;;;;9.60;57.94;101284.03;4869560;28;118483;-71
2021/04/11 10:40:01;;;;;;;4.78;1.20;;;;;;;9.64;57.72;101283.00;4888012;28;124498;-71
2021/04/11 10:42:40;;;;;;;3.13;1.30;;;;;;;9.68;57.58;101281.97;4887600;28;124967;-70
2021/04/11 10:45:23;;;;;;;1.85;1.23;;;;;;;9.72;57.35;101283.63;4887162;28;119164;-70
2021/04/11 10:47:55;;;;;;;4.60;1.30;;;;;;;9.74;57.45;101293.22;4888224;28;118375;-70
2021/04/11 10:50:28;;;;;;;2.67;1.67;;;;;;;9.74;57.34;101287.06;4886685;28;123879;-70
2021/04/11 10:53:09;;;;;;;2.17;1.40;;;;;;;9.72;57.26;101294.19;4878292;28;124104;-70
2021/04/11 10:56:23;;;;;;;2.63;1.30;;;;;;;9.71;57.43;101295.09;4884721;28;119083;-70
2021/04/11 10:59:15;;;;;;;3.60;1.30;;;;;;;9.78;57.42;101299.25;4890512;28;119014;-72
2021/04/11 11:01:57;;;;;;;2.70;1.20;;;;;;;9.83;57.18;101302.63;4879283;28;124742;-70
2021/04/11 11:04:42;;;;;;;3.08;1.40;;;;;;;9.88;57.13;101295.38;4874771;28;124314;-70
2021/04/11 11:07:34;;;;;;;3.88;1.50;;;;;;;9.94;57.26;101303.13;4887321;28;120555;-71
2021/04/11 11:10:11;;;;;;;3.72;1.38;;;;;;;10.01;57.07;101305.53;4888791;28;119932;-71
2021/04/11 11:12:53;;;;;;;5.13;1.40;;;;;;;10.06;56.96;101309.75;4885475;28;122988;-71
2021/04/11 11:16:00;;;;;;;5.05;1.58;;;;;;;10.08;56.60;101312.34;4883341;28;124536;-71
2021/04/11 11:18:59;;;;;;;4.35;1.40;;;;;;;10.08;56.76;101317.63;4854924;28;118197;-71
2021/04/11 11:21:48;;;;;;;2.42;1.15;;;;;;;10.09;56.63;101314.06;4889378;28;118950;-71
2021/04/11 11:24:54;;;;;;;3.50;1.48;;;;;;;10.12;56.80;101311.31;4887902;28;124081;-71
2021/04/11 11:27:41;;;;;;;3.05;1.38;;;;;;;10.20;56.90;101317.19;4874428;28;124649;-71
2021/04/11 11:30:20;;;;;;;4.47;1.38;;;;;;;10.28;56.93;101320.44;4871227;28;119130;-71
2021/04/11 11:33:02;;;;;;;4.07;1.80;;;;;;;10.36;56.72;101321.94;4887119;28;119193;-71
2021/04/11 11:35:30;;;;;;;3.25;1.50;;;;;;;10.42;56.75;101321.75;4885868;28;124755;-71
2021/04/11 11:38:05;;;;;;;4.72;1.50;;;;;;;10.47;56.12;101319.78;4884346;28;123398;-71
2021/04/11 11:40:38;;;;;;;;;;;;;;;10.53;56.86;101327.53;4888936;28;118913;-71
2021/04/11 11:43:16;;;;;;;2.47;1.48;;;;;;;10.59;56.43;101329.94;4887318;28;119754;-71
2021/04/11 11:46:12;;;;;;;4.20;1.55;;;;;;;10.63;56.39;101336.84;4887248;28;125065;-71
2021/04/11 11:48:45;;;;;;;;;;;;;;;10.68;56.53;101339.28;4869482;28;123845;-71
2021/04/11 11:51:23;;;;;;;4.22;1.50;;;;;;;10.74;56.13;101343.50;4886149;28;119713;-71
2021/04/11 11:53:56;;;;;;;3.08;1.30;;;;;;;10.76;55.31;101341.69;4885614;28;118949;-71
2021/04/11 11:56:32;;;;;;;7.22;1.50;;;;;;;10.76;55.34;101341.69;4887110;28;123691;-71
2021/04/11 11:59:10;;;;;;;2.70;1.48;;;;;;;10.73;55.16;101347.09;4887474;28;124166;-71
2021/04/11 12:01:45;;;;;;;4.32;1.48;;;;;;;10.69;54.70;101357.78;4884805;28;120546;-71
2021/04/11 12:04:31;;;;;;;;;;;;;;;10.66;55.35;101349.97;4886585;28;119915;-71
2021/04/11 12:07:03;;;;;;;3.58;1.67;;;;;;;10.65;54.84;101361.47;4888144;28;124940;-71
2021/04/11 12:09:44;;;;;;;4.50;1.60;;;;;;;10.63;54.53;101363.31;4887687;28;124341;-71
2021/04/11 12:12:24;;;;;;;5.88;1.40;;;;;;;10.63;54.35;101358.03;4887044;28;119615;-71
2021/04/11 12:15:11;;;;;;;4.55;1.65;;;;;;;10.67;54.90;101369.38;4887199;28;118412;-71
2021/04/11 12:17:54;;;;;;;3.38;1.30;;;;;;;10.70;54.90;101370.13;4868869;28;123436;-71
2021/04/11 12:20:26;;;;;;;3.83;1.80;;;;;;;10.76;54.48;101378.78;4887140;28;124230;-71
2021/04/11 12:23:17;;;;;;;4.38;1.80;;;;;;;10.78;54.58;101376.94;4890666;28;119343;-71
2021/04/11 12:25:44;;;;;;;5.72;1.70;;;;;;;10.82;54.79;101382.03;4891976;28;119337;-71